»·PEaware :: N900TB KPSP-KSBA

N900TB :: KPSP-KSBA

FLIGHT INFORMATION

Flight Status: Arrived
Operator: Privately registered:
United States
More flights under this callsign
Pilot: Saso K. (7898)
Aircraft: SOCATA TBM-900
(TBM9)
More flights by this aircraft type
Origin: KPSP Palm Springs Intl
United States
Destination: KSBA Santa Barbara Mun
United States
More flights between these airports :: More routes between these airports
Route: +CATH1 PSP V388 PDZ V197 POM V264 ITSME V186 DEANO V27 KWANG
File this flight plan on PilotEdge
Remarks: TEC route PSPN17
Altitude:
(Current/Filed)
12,000ft
Speed:
(Current/Filed)
320kts
Departed: 14-May-18 06:32 PM
Arrived: 14-May-18 07:20 PM
Distance/Time
Traveled:
169nm/0:48
Distance/Time
To Go:
Arrived

Flight Plot

Page will automatically refresh every two minutes.


Map Options




Map Legend


Flown Route
Filed Route
Departure Airport
Arrival Airport
Navaid (VOR, NDB)
Fix

Horizontal Profiles

Position Reports

Time Latitude Longitude Heading Altitude Ground
Speed
14-May-18 17:53 33.822491 -116.495992 233 391ft 0kts
14-May-18 17:54 33.822491 -116.495992 233 391ft 0kts
14-May-18 17:55 33.822491 -116.495992 233 391ft 0kts
14-May-18 17:56 33.822491 -116.495992 233 391ft 0kts
14-May-18 17:57 33.822491 -116.495992 233 391ft 0kts
14-May-18 17:58 33.822491 -116.495992 233 391ft 0kts
14-May-18 17:59 33.822491 -116.495992 233 391ft 0kts
14-May-18 18:00 33.822491 -116.495992 233 391ft 0kts
14-May-18 18:01 33.822491 -116.495992 233 391ft 0kts
14-May-18 18:02 33.822491 -116.495992 233 391ft 0kts
14-May-18 18:03 33.822491 -116.495992 233 391ft 0kts
14-May-18 18:04 33.822491 -116.495992 233 391ft 0kts
14-May-18 18:05 33.822491 -116.495992 233 391ft 0kts
14-May-18 18:06 33.822491 -116.495992 233 391ft 0kts
14-May-18 18:07 33.822491 -116.495992 233 391ft 0kts
14-May-18 18:08 33.822491 -116.495992 233 391ft 0kts
14-May-18 18:09 33.822491 -116.495992 233 391ft 0kts
14-May-18 18:10 33.822491 -116.495992 233 391ft 0kts
14-May-18 18:11 33.822491 -116.495992 233 391ft 0kts
14-May-18 18:12 33.822491 -116.495992 233 391ft 0kts
14-May-18 18:13 33.822491 -116.495992 233 391ft 0kts
14-May-18 18:14 33.822491 -116.495992 233 391ft 0kts
14-May-18 18:15 33.822491 -116.495992 233 391ft 0kts
14-May-18 18:16 33.822491 -116.495992 233 391ft 0kts
14-May-18 18:17 33.822491 -116.495992 233 391ft 0kts
14-May-18 18:18 33.822491 -116.495992 233 391ft 0kts
14-May-18 18:19 33.822491 -116.495992 233 391ft 0kts
14-May-18 18:20 33.822491 -116.495992 233 391ft 0kts
14-May-18 18:21 33.822491 -116.495992 233 391ft 0kts
14-May-18 18:22 33.822491 -116.495992 233 391ft 0kts
14-May-18 18:23 33.822490 -116.495992 233 391ft 0kts
14-May-18 18:24 33.822490 -116.495992 233 391ft 0kts
14-May-18 18:25 33.822490 -116.495992 233 391ft 0kts
14-May-18 18:26 33.822490 -116.495992 233 391ft 0kts
14-May-18 18:27 33.822490 -116.495992 233 391ft 0kts
14-May-18 18:28 33.822490 -116.495992 233 391ft 0kts
14-May-18 18:29 33.822414 -116.496102 227 391ft 5kts
14-May-18 18:30 33.820129 -116.495653 212 389ft 6kts
14-May-18 18:31 33.819100 -116.497241 235 391ft 5kts
14-May-18 18:32 33.825991 -116.504255 325 595ft 106kts
14-May-18 18:33 33.853578 -116.529759 323 2797ft 141kts
14-May-18 18:34 33.882182 -116.560822 322 5238ft 145kts
14-May-18 18:35 33.912121 -116.562227 83 7290ft 150kts
14-May-18 18:36 33.901710 -116.512865 63 9660ft 159kts
14-May-18 18:37 33.932137 -116.531199 277 11471ft 198kts
14-May-18 18:38 33.938791 -116.606339 275 12027ft 255kts
14-May-18 18:39 33.945391 -116.695025 274 12035ft 275kts
14-May-18 18:40 33.947119 -116.785153 267 12080ft 275kts
14-May-18 18:41 33.944038 -116.876981 267 11997ft 279kts
14-May-18 18:42 33.940837 -116.969405 266 12000ft 276kts
14-May-18 18:43 33.937571 -117.061081 266 12000ft 274kts
14-May-18 18:44 33.934321 -117.150464 266 11999ft 271kts
14-May-18 18:45 33.930597 -117.238920 266 12000ft 270kts
14-May-18 18:46 33.926673 -117.328929 266 12000ft 270kts
14-May-18 18:47 33.922949 -117.418732 266 12000ft 270kts
14-May-18 18:48 33.919269 -117.508042 266 12000ft 270kts
14-May-18 18:49 33.951820 -117.583165 305 12000ft 273kts
14-May-18 18:50 33.995938 -117.654348 305 12004ft 273kts
14-May-18 18:51 34.039303 -117.724088 305 12017ft 273kts
14-May-18 18:52 34.076723 -117.799702 272 12039ft 270kts
14-May-18 18:53 34.076832 -117.888155 268 12042ft 270kts
14-May-18 18:54 34.075508 -117.975950 267 12031ft 271kts
14-May-18 18:55 34.091893 -118.059559 289 12023ft 272kts
14-May-18 18:56 34.114475 -118.133327 289 12016ft 272kts
14-May-18 18:57 34.139339 -118.214712 289 12013ft 272kts
14-May-18 18:58 34.164102 -118.297798 279 12002ft 272kts
14-May-18 18:59 34.168273 -118.387084 272 11109ft 275kts
14-May-18 19:00 34.172214 -118.477746 272 10130ft 278kts
14-May-18 19:01 34.176432 -118.569916 272 9154ft 281kts
14-May-18 19:02 34.180764 -118.661114 271 8182ft 278kts
14-May-18 19:03 34.184998 -118.750032 271 7224ft 275kts
14-May-18 19:04 34.189053 -118.838735 271 6237ft 264kts
14-May-18 19:05 34.192960 -118.924179 272 6105ft 246kts
14-May-18 19:06 34.196879 -119.007225 272 6038ft 249kts
14-May-18 19:07 34.200841 -119.089693 272 6038ft 248kts
14-May-18 19:08 34.204884 -119.172438 272 6037ft 247kts
14-May-18 19:09 34.208923 -119.254949 272 6036ft 246kts
14-May-18 19:10 34.212914 -119.337159 272 6035ft 244kts
14-May-18 19:11 34.216926 -119.419004 273 6034ft 244kts
14-May-18 19:12 34.265363 -119.475697 321 5976ft 254kts
14-May-18 19:13 34.320775 -119.524957 321 4562ft 238kts
14-May-18 19:14 34.354480 -119.587182 292 3995ft 218kts
14-May-18 19:15 34.378621 -119.653350 292 3966ft 213kts
14-May-18 19:16 34.404881 -119.718197 297 2501ft 206kts
14-May-18 19:17 34.428379 -119.774785 282 1367ft 171kts
14-May-18 19:18 34.428373 -119.814994 269 395ft 89kts
14-May-18 19:19 34.427765 -119.840819 269 13ft 43kts
14-May-18 19:20 34.426889 -119.846187 169 13ft 0kts
14-May-18 19:21 34.426577 -119.844366 87 13ft 16kts
14-May-18 19:22 34.426701 -119.839142 89 11ft 13kts
14-May-18 19:23 34.423267 -119.837330 175 11ft 15kts
14-May-18 19:24 34.422927 -119.836152 350 10ft 0kts
14-May-18 19:25 34.422927 -119.836152 350 10ft 0kts
14-May-18 19:26 34.422927 -119.836152 350 10ft 0kts
14-May-18 19:27 34.422927 -119.836152 350 10ft 0kts
14-May-18 19:28 34.422927 -119.836152 350 10ft 0kts

Navigation Log

Ident Type
1. KPSP Airport
2. PSP Navaid
3. DEWAY Fix
4. ACINS Fix
5. LENHO Fix
6. KNDAL Fix
7. PDZ Navaid
8. POM Navaid
9. COVIN Fix
10. HOPUN Fix
11. ITSME Fix
12. ELMOO Fix
13. PURMS Fix
14. DARTS Fix
15. VNY Navaid
16. SESPE Fix
17. FIM Navaid
18. HENER Fix
19. DEANO Fix
20. KWANG Fix
21. KSBA Airport